Time;durP1;ratioP1;P1;durP2;ratioP2;P2;SDS_P1;SDS_P2;PMS_P1;PMS_P2;Temp;Humidity;BMP_temperature;BMP_pressure;BME280_temperature;BME280_humidity;BME280_pressure;Samples;Min_cycle;Max_cycle;Signal;HPM_P1;HPM_P2
2023/01/18 00:01:03;;;;;;;12.90;7.10;;;3.70;1.00;;;;;;5058086;28;20440;-61
2023/01/18 00:03:32;;;;;;;11.53;7.83;;;3.80;1.00;;;;;;5051355;28;20954;-61
2023/01/18 00:06:02;;;;;;;12.10;8.67;;;3.80;1.00;;;;;;5051150;28;20554;-61
2023/01/18 00:08:29;;;;;;;11.00;8.60;;;4.00;1.00;;;;;;5046801;28;20468;-60
2023/01/18 00:11:01;;;;;;;12.20;8.23;;;4.00;1.00;;;;;;5048205;28;20816;-61
2023/01/18 00:13:27;;;;;;;11.80;8.93;;;4.00;1.00;;;;;;5048825;28;20447;-61
2023/01/18 00:15:53;;;;;;;9.60;7.43;;;4.00;1.00;;;;;;5051337;28;20467;-60
2023/01/18 00:18:18;;;;;;;10.60;8.67;;;3.90;1.00;;;;;;5051062;28;20195;-61
2023/01/18 00:20:44;;;;;;;11.27;8.53;;;4.00;1.00;;;;;;5050193;28;20186;-62
2023/01/18 00:23:09;;;;;;;12.23;9.73;;;3.90;1.00;;;;;;5049535;28;20585;-61
2023/01/18 00:25:35;;;;;;;11.13;9.53;;;3.90;1.00;;;;;;5066712;28;20192;-61
2023/01/18 00:28:01;;;;;;;9.87;8.97;;;3.90;1.00;;;;;;5048534;28;20186;-61
2023/01/18 00:30:28;;;;;;;11.40;8.63;;;3.90;1.00;;;;;;5050994;28;20651;-61
2023/01/18 00:32:56;;;;;;;11.50;8.60;;;3.90;1.00;;;;;;5047984;28;20198;-61
2023/01/18 00:35:22;;;;;;;14.90;9.30;;;4.00;1.00;;;;;;5050427;28;20452;-61
2023/01/18 00:37:48;;;;;;;13.80;9.37;;;4.00;1.00;;;;;;5047847;28;20445;-61
2023/01/18 00:40:14;;;;;;;11.33;8.63;;;4.00;1.00;;;;;;5050825;28;20441;-60
2023/01/18 00:45:25;;;;;;;11.90;9.10;;;5.30;1.00;;;;;;5047437;28;20268;-61
2023/01/18 00:47:51;;;;;;;10.73;8.10;;;4.00;1.00;;;;;;5049170;28;20472;-61
2023/01/18 00:50:19;;;;;;;11.13;7.30;;;3.90;1.00;;;;;;5048110;28;20592;-61
2023/01/18 00:52:46;;;;;;;8.93;7.50;;;3.90;1.00;;;;;;5048570;28;20229;-61
2023/01/18 00:55:12;;;;;;;10.83;8.00;;;3.90;1.00;;;;;;5048606;28;20512;-61
2023/01/18 00:57:38;;;;;;;13.03;7.87;;;3.90;1.00;;;;;;5050447;28;20431;-61
2023/01/18 01:00:10;;;;;;;10.70;7.53;;;4.00;1.00;;;;;;5044715;28;20481;-60
2023/01/18 01:02:39;;;;;;;9.10;7.60;;;3.90;1.00;;;;;;5045687;28;20469;-60
2023/01/18 01:07:55;;;;;;;9.67;7.40;;;4.00;1.00;;;;;;5048620;28;20454;-61
2023/01/18 01:10:20;;;;;;;9.37;7.13;;;3.90;1.00;;;;;;5049748;28;20470;-61
2023/01/18 01:26:31;;;;;;;9.97;8.07;;;4.00;1.00;;;;;;5041737;28;20460;-60
2023/01/18 01:28:56;;;;;;;7.50;6.80;;;4.00;1.00;;;;;;5050077;28;20470;-60
2023/01/18 01:31:22;;;;;;;8.10;7.30;;;4.10;1.00;;;;;;5048287;28;20354;-62
2023/01/18 01:33:50;;;;;;;9.50;7.10;;;4.20;1.00;;;;;;5050326;28;20186;-60
2023/01/18 01:36:20;;;;;;;9.40;7.90;;;4.30;1.00;;;;;;5041583;28;20495;-60
2023/01/18 01:38:46;;;;;;;9.73;7.93;;;4.30;1.00;;;;;;5047216;28;20459;-61
2023/01/18 01:41:25;;;;;;;12.67;7.87;;;4.20;1.00;;;;;;5048041;28;21037;-60
2023/01/18 01:44:03;;;;;;;9.23;7.33;;;4.20;1.00;;;;;;5044991;28;20838;-60
2023/01/18 01:46:42;;;;;;;9.70;7.33;;;3.90;1.00;;;;;;5047012;28;21003;-60
2023/01/18 01:49:31;;;;;;;8.30;6.80;;;3.90;1.00;;;;;;5055830;28;20501;-60
2023/01/18 01:52:06;;;;;;;7.87;6.73;;;4.00;1.00;;;;;;5035801;28;21006;-60
2023/01/18 01:54:38;;;;;;;11.30;7.27;;;3.90;1.00;;;;;;5044692;28;20450;-60
2023/01/18 01:57:09;;;;;;;8.30;7.17;;;3.90;1.00;;;;;;5046667;28;20492;-61
2023/01/18 01:59:41;;;;;;;10.30;7.07;;;3.80;1.00;;;;;;5049791;28;20925;-61
2023/01/18 02:02:08;;;;;;;8.70;7.70;;;3.70;1.00;;;;;;5046721;28;20713;-61
2023/01/18 02:04:34;;;;;;;12.40;7.80;;;3.70;1.00;;;;;;5048226;28;20447;-61
2023/01/18 02:07:00;;;;;;;9.70;7.87;;;4.10;1.00;;;;;;5045811;28;20452;-61
2023/01/18 02:09:26;;;;;;;11.63;7.13;;;3.60;1.00;;;;;;5046918;28;20819;-61
2023/01/18 02:11:53;;;;;;;14.10;8.40;;;3.60;1.00;;;;;;5047727;28;20518;-60
2023/01/18 02:14:24;;;;;;;14.60;9.53;;;3.70;1.00;;;;;;5047836;28;20855;-60
2023/01/18 02:17:17;;;;;;;12.83;8.13;;;3.70;1.00;;;;;;5045012;28;20457;-61
2023/01/18 02:20:09;;;;;;;10.20;7.40;;;3.70;1.00;;;;;;5045425;28;20948;-61
2023/01/18 02:22:47;;;;;;;12.33;9.10;;;3.90;1.00;;;;;;5049400;28;20509;-60
2023/01/18 02:25:33;;;;;;;8.60;7.80;;;4.00;1.00;;;;;;5048619;28;20531;-61
2023/01/18 02:28:16;;;;;;;19.03;8.90;;;4.00;1.00;;;;;;5045931;28;20798;-60
2023/01/18 02:30:44;;;;;;;12.77;8.90;;;4.10;1.00;;;;;;5051319;28;20439;-60
2023/01/18 02:33:22;;;;;;;8.70;7.80;;;4.10;1.00;;;;;;5060387;28;20453;-60
2023/01/18 02:35:54;;;;;;;13.37;9.60;;;4.00;1.00;;;;;;5045861;28;20438;-60
2023/01/18 02:38:29;;;;;;;10.40;8.93;;;4.00;1.00;;;;;;5046701;28;20457;-61
2023/01/18 02:41:15;;;;;;;10.60;7.63;;;4.00;1.00;;;;;;5045479;28;20920;-61
2023/01/18 02:46:34;;;;;;;15.83;10.13;;;4.00;1.00;;;;;;5048797;28;20501;-61
2023/01/18 02:49:19;;;;;;;12.87;9.70;;;3.90;1.00;;;;;;5047866;28;20625;-60
2023/01/18 02:51:45;;;;;;;13.00;10.70;;;4.00;1.00;;;;;;5044162;28;20442;-61
2023/01/18 02:54:12;;;;;;;15.47;10.80;;;4.20;1.00;;;;;;5044742;28;20435;-61
2023/01/18 02:56:42;;;;;;;15.20;10.60;;;4.20;1.00;;;;;;5046103;28;20552;-61
2023/01/18 02:59:16;;;;;;;13.37;11.30;;;4.10;1.00;;;;;;5048824;28;20435;-60
2023/01/18 03:01:51;;;;;;;17.17;11.57;;;4.10;1.00;;;;;;5047570;28;20453;-61
2023/01/18 03:04:21;;;;;;;17.20;12.60;;;4.10;1.00;;;;;;5048929;28;20860;-60
2023/01/18 03:06:56;;;;;;;15.93;12.67;;;4.20;1.00;;;;;;5045902;28;20453;-59
2023/01/18 03:09:24;;;;;;;19.80;12.80;;;4.30;1.00;;;;;;5046840;28;20814;-59
2023/01/18 03:12:23;;;;;;;15.73;12.40;;;4.30;1.00;;;;;;5045624;28;20456;-60
2023/01/18 03:15:12;;;;;;;17.20;11.67;;;4.30;1.00;;;;;;5053103;28;20617;-60
2023/01/18 03:17:47;;;;;;;13.33;11.00;;;4.00;1.00;;;;;;5060094;28;20451;-60
2023/01/18 03:20:17;;;;;;;16.63;11.80;;;3.90;1.00;;;;;;5043751;28;20450;-60
2023/01/18 03:25:36;;;;;;;15.17;12.20;;;3.80;1.00;;;;;;5054794;28;20499;-60
2023/01/18 03:33:43;;;;;;;14.40;11.03;;;3.90;1.00;;;;;;5051683;28;20565;-60
2023/01/18 03:36:16;;;;;;;14.83;11.00;;;3.90;1.00;;;;;;5051756;28;22272;-61
2023/01/18 03:38:45;;;;;;;17.10;11.37;;;4.00;1.00;;;;;;5049558;28;20451;-60
2023/01/18 03:41:12;;;;;;;16.37;12.00;;;4.10;1.00;;;;;;5049128;28;20545;-61
2023/01/18 03:43:40;;;;;;;14.17;10.60;;;4.00;1.00;;;;;;5048922;28;20443;-61
2023/01/18 03:46:07;;;;;;;16.57;11.43;;;4.20;1.00;;;;;;5050802;28;20505;-61
2023/01/18 03:48:35;;;;;;;15.07;12.10;;;4.20;1.00;;;;;;5051033;28;20475;-60
2023/01/18 03:51:14;;;;;;;13.03;9.63;;;4.30;1.00;;;;;;5049771;28;20554;-60
2023/01/18 03:54:01;;;;;;;12.80;10.07;;;4.20;1.00;;;;;;5051528;28;21008;-60
2023/01/18 03:57:02;;;;;;;15.03;11.33;;;4.20;1.00;;;;;;5046455;28;20471;-60
2023/01/18 03:59:33;;;;;;;13.27;10.43;;;4.20;1.00;;;;;;5023584;28;20790;-60
2023/01/18 04:02:01;;;;;;;14.50;10.27;;;4.10;1.00;;;;;;5050160;28;20448;-60
2023/01/18 04:04:26;;;;;;;15.23;10.33;;;4.10;1.00;;;;;;5047912;28;20450;-61
2023/01/18 04:06:52;;;;;;;16.60;10.87;;;4.00;1.00;;;;;;5050220;28;20450;-61
2023/01/18 04:09:17;;;;;;;15.37;10.80;;;3.90;1.00;;;;;;5051537;28;20236;-60
2023/01/18 04:11:43;;;;;;;13.17;9.93;;;4.10;1.00;;;;;;5049927;28;20653;-60
2023/01/18 04:14:09;;;;;;;16.73;10.43;;;4.00;1.00;;;;;;5045653;28;20237;-61
2023/01/18 04:16:35;;;;;;;13.10;11.00;;;4.10;1.00;;;;;;5050408;28;20527;-62
2023/01/18 04:19:00;;;;;;;12.07;9.77;;;4.20;1.00;;;;;;5050155;28;20189;-62
2023/01/18 04:21:26;;;;;;;13.30;11.50;;;4.20;1.00;;;;;;5050023;28;20662;-61
2023/01/18 04:23:51;;;;;;;16.00;12.37;;;4.10;1.00;;;;;;5050464;28;20200;-61
2023/01/18 04:26:18;;;;;;;17.87;11.97;;;4.00;1.00;;;;;;5047218;28;20664;-60
2023/01/18 04:28:43;;;;;;;17.27;10.60;;;3.90;1.00;;;;;;5051458;28;20201;-61
2023/01/18 04:31:09;;;;;;;14.43;11.23;;;3.80;1.00;;;;;;5049645;28;20470;-61
2023/01/18 04:33:34;;;;;;;19.00;13.03;;;3.80;1.00;;;;;;5050896;28;20674;-60
2023/01/18 04:36:00;;;;;;;16.47;11.77;;;3.90;1.00;;;;;;5047463;28;20177;-60
2023/01/18 04:38:27;;;;;;;14.90;11.20;;;3.80;1.00;;;;;;5049656;28;20196;-61
2023/01/18 04:40:53;;;;;;;13.33;11.60;;;3.90;1.00;;;;;;5041166;28;20204;-62
2023/01/18 04:43:18;;;;;;;16.00;12.10;;;3.90;1.00;;;;;;5043662;28;20455;-60
2023/01/18 04:45:55;;;;;;;13.83;11.97;;;3.80;1.00;;;;;;5044248;28;20188;-61
2023/01/18 04:48:21;;;;;;;16.17;11.40;;;3.80;1.00;;;;;;5049103;28;20196;-61
2023/01/18 04:50:47;;;;;;;19.83;12.10;;;3.80;1.00;;;;;;5048657;28;20524;-59
2023/01/18 04:53:13;;;;;;;14.20;11.20;;;3.60;1.00;;;;;;5047363;28;20454;-61
2023/01/18 04:55:39;;;;;;;14.63;11.57;;;3.70;1.00;;;;;;5047958;28;21216;-61
2023/01/18 04:58:04;;;;;;;15.57;11.90;;;3.70;1.00;;;;;;5048142;28;20534;-61
2023/01/18 05:00:30;;;;;;;14.53;12.30;;;3.80;1.00;;;;;;5048703;28;20193;-61
2023/01/18 05:02:56;;;;;;;15.47;11.70;;;3.80;1.00;;;;;;5048767;28;20275;-61
2023/01/18 05:05:21;;;;;;;14.93;12.00;;;3.80;1.00;;;;;;5048377;28;20192;-61
2023/01/18 05:07:47;;;;;;;14.40;11.50;;;3.80;1.00;;;;;;5046589;28;20188;-63
2023/01/18 05:10:13;;;;;;;16.93;11.80;;;3.70;1.00;;;;;;5044322;28;20581;-63
2023/01/18 05:12:38;;;;;;;16.17;12.50;;;3.60;1.00;;;;;;5063901;28;20234;-60
2023/01/18 05:15:04;;;;;;;14.53;12.00;;;3.60;1.00;;;;;;5046291;28;20510;-60
2023/01/18 05:17:33;;;;;;;15.47;12.47;;;3.40;1.00;;;;;;5050982;28;20189;-60
2023/01/18 05:19:59;;;;;;;16.67;12.70;;;3.40;1.00;;;;;;5050633;28;20485;-60
2023/01/18 05:22:26;;;;;;;18.57;12.67;;;3.30;1.00;;;;;;5050137;28;20497;-59
2023/01/18 05:24:53;;;;;;;14.60;11.73;;;3.20;1.00;;;;;;5048851;28;20460;-61
2023/01/18 05:27:19;;;;;;;17.33;14.50;;;3.10;1.00;;;;;;5063992;28;20453;-60
2023/01/18 05:29:47;;;;;;;16.50;13.13;;;3.20;1.00;;;;;;5057249;28;20538;-59
2023/01/18 05:32:12;;;;;;;18.33;12.97;;;3.20;1.00;;;;;;5047233;28;20191;-61
2023/01/18 05:34:38;;;;;;;19.93;13.53;;;3.30;1.00;;;;;;5045921;28;20956;-61
2023/01/18 05:37:04;;;;;;;17.43;13.40;;;3.30;1.00;;;;;;5049220;28;20622;-61
2023/01/18 05:39:29;;;;;;;19.00;14.20;;;3.30;1.00;;;;;;5048843;28;20195;-60
2023/01/18 05:41:55;;;;;;;19.17;14.27;;;3.20;1.00;;;;;;5049747;28;20194;-61
2023/01/18 05:44:20;;;;;;;19.23;15.43;;;3.30;1.00;;;;;;5046095;28;20220;-61
2023/01/18 05:46:46;;;;;;;21.07;14.53;;;3.30;1.00;;;;;;5049341;28;20647;-62
2023/01/18 05:49:12;;;;;;;18.60;13.80;;;3.40;1.00;;;;;;5047285;28;20248;-61
2023/01/18 05:51:37;;;;;;;16.03;12.70;;;3.30;1.00;;;;;;5049213;28;20207;-60
2023/01/18 05:54:03;;;;;;;18.27;13.10;;;3.20;1.00;;;;;;5032472;28;20195;-62
2023/01/18 05:56:29;;;;;;;16.63;12.90;;;3.30;1.00;;;;;;5049396;28;20192;-62
2023/01/18 05:58:54;;;;;;;15.13;12.57;;;3.30;1.00;;;;;;5052540;28;20242;-61
2023/01/18 06:01:20;;;;;;;19.07;12.57;;;3.20;1.00;;;;;;5054010;28;20284;-60
2023/01/18 06:03:45;;;;;;;13.30;11.90;;;3.30;1.00;;;;;;5048745;28;20195;-61
2023/01/18 06:06:11;;;;;;;16.70;11.43;;;3.30;1.00;;;;;;5048517;28;20189;-60
2023/01/18 06:08:37;;;;;;;14.60;11.53;;;3.40;1.00;;;;;;5047521;28;20208;-62
2023/01/18 06:11:03;;;;;;;22.20;13.13;;;3.40;1.00;;;;;;5044456;28;20217;-62
2023/01/18 06:13:31;;;;;;;17.73;12.10;;;3.40;1.00;;;;;;5049509;28;20209;-62
2023/01/18 06:15:58;;;;;;;14.70;12.43;;;3.40;1.00;;;;;;5045794;28;20445;-61
2023/01/18 06:18:25;;;;;;;15.43;12.27;;;3.40;1.00;;;;;;5047744;28;20809;-61
2023/01/18 06:20:56;;;;;;;16.33;12.13;;;3.40;1.00;;;;;;5048573;28;21330;-62
2023/01/18 06:23:22;;;;;;;17.70;13.20;;;3.30;1.00;;;;;;5046848;28;20543;-62
2023/01/18 06:25:48;;;;;;;15.07;12.97;;;3.30;1.00;;;;;;5051609;28;20472;-62
2023/01/18 06:28:15;;;;;;;15.53;12.93;;;3.30;1.00;;;;;;5049952;28;20960;-61
2023/01/18 06:30:41;;;;;;;18.30;12.77;;;3.20;1.00;;;;;;5049222;28;20447;-63
2023/01/18 06:33:08;;;;;;;15.93;11.20;;;3.30;1.00;;;;;;5048598;28;20478;-61
2023/01/18 06:35:35;;;;;;;16.67;12.07;;;3.40;1.00;;;;;;5056167;28;20439;-62
2023/01/18 06:38:01;;;;;;;12.83;10.80;;;3.40;1.00;;;;;;5060008;28;20488;-63
2023/01/18 06:40:27;;;;;;;15.10;11.53;;;3.40;1.00;;;;;;5048589;28;20452;-62
2023/01/18 06:42:53;;;;;;;14.07;12.03;;;3.30;1.00;;;;;;5047216;28;20833;-63
2023/01/18 06:45:20;;;;;;;13.97;11.77;;;3.30;1.00;;;;;;5048974;28;20450;-62
2023/01/18 06:47:47;;;;;;;17.33;12.57;;;3.20;1.00;;;;;;5048894;28;20563;-62
2023/01/18 06:50:14;;;;;;;15.10;12.10;;;3.20;1.00;;;;;;5048718;28;20471;-63
2023/01/18 06:52:41;;;;;;;14.07;12.13;;;3.40;1.00;;;;;;5055721;28;20437;-61
2023/01/18 06:55:07;;;;;;;17.83;12.77;;;3.50;1.00;;;;;;5068667;28;20434;-62
2023/01/18 06:57:32;;;;;;;17.60;11.50;;;3.60;1.00;;;;;;5068974;28;20437;-62
2023/01/18 06:59:59;;;;;;;13.97;12.17;;;3.70;1.00;;;;;;5050503;28;20809;-61
2023/01/18 07:02:25;;;;;;;18.00;12.80;;;3.60;1.00;;;;;;5052839;28;20197;-62
2023/01/18 07:04:51;;;;;;;16.70;11.23;;;3.60;1.00;;;;;;5052641;28;20441;-62
2023/01/18 07:07:16;;;;;;;15.90;12.70;;;3.70;1.00;;;;;;5052841;28;20191;-62
2023/01/18 07:09:42;;;;;;;14.37;12.07;;;3.60;1.00;;;;;;5052755;28;20204;-62
2023/01/18 07:12:08;;;;;;;19.13;13.73;;;3.50;1.00;;;;;;5052571;28;20184;-62
2023/01/18 07:14:33;;;;;;;17.67;12.97;;;3.60;1.00;;;;;;5052129;28;20195;-62
2023/01/18 07:16:59;;;;;;;20.10;14.37;;;3.50;1.00;;;;;;5052218;28;20442;-62
2023/01/18 07:19:25;;;;;;;18.37;13.90;;;3.50;1.00;;;;;;5050011;28;20185;-62
2023/01/18 07:21:52;;;;;;;17.60;12.80;;;3.50;1.00;;;;;;5051335;28;20193;-62
2023/01/18 07:24:18;;;;;;;20.43;14.63;;;3.50;1.00;;;;;;5049159;28;20276;-62
2023/01/18 07:26:44;;;;;;;19.63;13.93;;;3.60;1.00;;;;;;5052044;28;20802;-62
2023/01/18 07:29:10;;;;;;;18.93;13.20;;;3.60;1.00;;;;;;5052106;28;20463;-62
2023/01/18 07:31:37;;;;;;;15.53;12.67;;;3.60;1.00;;;;;;5051432;28;20705;-62
2023/01/18 07:34:03;;;;;;;18.47;14.13;;;3.70;1.00;;;;;;5060148;28;20714;-63
2023/01/18 07:36:29;;;;;;;16.27;13.03;;;3.80;1.00;;;;;;5062452;28;20490;-62
2023/01/18 07:38:54;;;;;;;16.33;13.60;;;3.80;1.00;;;;;;5052121;28;20448;-63
2023/01/18 07:41:21;;;;;;;14.43;12.63;;;3.90;1.00;;;;;;5051318;28;20235;-63
2023/01/18 07:43:48;;;;;;;15.40;12.07;;;4.00;1.00;;;;;;5051470;28;20231;-62
2023/01/18 07:46:17;;;;;;;18.97;12.10;;;4.10;1.00;;;;;;5049877;28;20537;-63
2023/01/18 07:48:43;;;;;;;13.93;11.60;;;4.00;1.00;;;;;;5050685;28;20470;-62
2023/01/18 07:51:09;;;;;;;16.30;12.03;;;3.90;1.00;;;;;;5051389;28;21086;-62
2023/01/18 07:53:36;;;;;;;12.97;10.03;;;4.00;1.00;;;;;;5050383;28;20488;-61
2023/01/18 07:56:05;;;;;;;16.07;13.07;;;4.00;1.00;;;;;;5050288;28;20436;-62
2023/01/18 07:58:30;;;;;;;14.20;11.43;;;4.10;1.00;;;;;;5051850;28;20431;-62
2023/01/18 08:01:02;;;;;;;21.00;11.53;;;4.20;1.00;;;;;;5051074;28;20452;-61
2023/01/18 08:03:28;;;;;;;11.17;9.97;;;4.00;1.00;;;;;;5048427;28;20209;-61
2023/01/18 08:05:56;;;;;;;13.80;10.07;;;4.20;1.00;;;;;;5050824;28;20493;-61
2023/01/18 08:08:22;;;;;;;12.73;10.13;;;4.00;1.00;;;;;;5051619;28;20189;-60
2023/01/18 08:10:47;;;;;;;14.87;10.07;;;4.00;1.00;;;;;;5047801;28;20454;-61
2023/01/18 08:13:13;;;;;;;10.97;9.50;;;3.90;1.00;;;;;;5050605;28;20604;-61
2023/01/18 08:15:39;;;;;;;14.50;10.20;;;3.90;1.00;;;;;;5050928;28;20191;-61
2023/01/18 08:18:06;;;;;;;12.40;9.73;;;3.90;1.00;;;;;;5050903;28;20208;-61
2023/01/18 08:20:32;;;;;;;14.60;9.37;;;4.00;1.00;;;;;;5050977;28;20444;-62
2023/01/18 08:23:00;;;;;;;15.27;10.73;;;4.00;1.00;;;;;;5047458;28;21903;-61
2023/01/18 08:25:32;;;;;;;14.67;10.97;;;4.10;1.00;;;;;;5051106;28;20197;-61
2023/01/18 08:28:01;;;;;;;11.77;10.20;;;4.10;1.00;;;;;;5051437;28;20437;-61
2023/01/18 08:30:36;;;;;;;12.37;9.47;;;4.10;1.00;;;;;;5051055;28;20467;-61
2023/01/18 08:33:02;;;;;;;12.00;10.50;;;4.00;1.00;;;;;;5051505;28;20469;-61
2023/01/18 08:35:31;;;;;;;13.50;9.63;;;3.80;1.00;;;;;;5069647;28;20996;-62
2023/01/18 08:37:58;;;;;;;13.47;9.80;;;3.70;1.00;;;;;;5047462;28;20453;-56
2023/01/18 08:40:24;;;;;;;13.63;10.30;;;3.70;1.00;;;;;;5049962;28;20945;-56
2023/01/18 08:43:01;;;;;;;16.13;10.40;;;3.60;1.00;;;;;;5050647;28;20443;-57
2023/01/18 08:45:27;;;;;;;14.90;10.90;;;3.50;1.00;;;;;;5051745;28;20505;-56
2023/01/18 08:48:01;;;;;;;13.07;10.10;;;3.50;1.00;;;;;;5056515;28;20440;-56
2023/01/18 08:50:28;;;;;;;14.07;10.43;;;3.50;1.00;;;;;;5050759;28;20502;-58
2023/01/18 08:52:55;;;;;;;13.00;9.60;;;3.50;1.00;;;;;;5050107;28;20496;-56
2023/01/18 08:55:21;;;;;;;17.30;11.60;;;3.50;1.00;;;;;;5050348;28;20459;-56
2023/01/18 08:57:48;;;;;;;17.20;10.43;;;3.50;1.00;;;;;;5048706;28;20528;-55
2023/01/18 09:00:16;;;;;;;14.10;11.53;;;3.50;1.00;;;;;;5050139;28;20450;-56
2023/01/18 09:02:41;;;;;;;13.10;10.90;;;3.50;1.00;;;;;;5050052;28;20444;-56
2023/01/18 09:05:07;;;;;;;13.70;11.10;;;3.60;1.00;;;;;;5057263;28;20514;-56
2023/01/18 09:07:33;;;;;;;14.40;11.60;;;3.70;1.00;;;;;;5050847;28;20185;-56
2023/01/18 09:09:59;;;;;;;16.83;11.80;;;3.90;1.00;;;;;;5050432;28;20459;-57
2023/01/18 09:12:25;;;;;;;15.67;11.50;;;3.90;1.00;;;;;;5051010;28;20623;-56
2023/01/18 09:14:50;;;;;;;18.13;12.30;;;3.90;1.00;;;;;;5049562;28;20444;-56
2023/01/18 09:17:20;;;;;;;17.50;12.23;;;4.00;1.00;;;;;;5049614;28;20665;-55
2023/01/18 09:19:45;;;;;;;16.53;12.90;;;4.10;1.00;;;;;;5058431;28;20665;-57
2023/01/18 09:22:11;;;;;;;17.00;13.20;;;4.30;1.00;;;;;;5048905;28;20539;-57
2023/01/18 09:24:37;;;;;;;13.20;10.40;;;4.50;1.00;;;;;;5049312;28;20537;-56
2023/01/18 09:27:05;;;;;;;17.80;11.27;;;4.60;1.00;;;;;;5050311;28;20535;-56
2023/01/18 09:29:31;;;;;;;12.60;10.60;;;4.90;1.00;;;;;;5049965;28;20204;-56
2023/01/18 09:31:58;;;;;;;15.73;11.07;;;5.10;1.00;;;;;;5050043;28;20442;-57
2023/01/18 09:34:24;;;;;;;13.00;10.03;;;5.10;1.00;;;;;;5050226;28;20990;-56
2023/01/18 09:36:51;;;;;;;14.80;11.07;;;5.00;1.00;;;;;;5057244;28;20434;-57
2023/01/18 09:39:18;;;;;;;13.97;10.57;;;5.10;1.00;;;;;;5058423;28;20197;-57
2023/01/18 09:41:59;;;;;;;13.87;11.50;;;5.00;1.00;;;;;;5050305;28;20514;-55
2023/01/18 09:44:44;;;;;;;12.43;10.83;;;5.10;1.00;;;;;;5049883;28;20510;-55
2023/01/18 09:47:22;;;;;;;15.23;10.67;;;5.20;1.00;;;;;;5049956;28;20430;-56
2023/01/18 09:50:14;;;;;;;19.80;12.07;;;5.30;1.00;;;;;;5049526;28;20475;-56
2023/01/18 09:52:56;;;;;;;16.20;11.13;;;5.40;1.00;;;;;;5049629;28;20779;-57
2023/01/18 09:55:31;;;;;;;19.67;13.10;;;5.30;1.00;;;;;;5047728;28;20528;-55
2023/01/18 09:58:09;;;;;;;15.50;11.80;;;5.20;1.00;;;;;;5048865;28;20444;-56
2023/01/18 10:00:40;;;;;;;17.73;12.77;;;5.20;1.00;;;;;;5063568;28;20432;-55
2023/01/18 10:03:18;;;;;;;13.93;11.63;;;5.20;1.00;;;;;;5051117;28;20451;-56
2023/01/18 10:06:07;;;;;;;18.77;13.90;;;5.30;1.00;;;;;;5061087;28;20433;-56
2023/01/18 10:08:38;;;;;;;15.57;11.70;;;5.20;1.00;;;;;;5049237;28;20430;-57
2023/01/18 10:11:10;;;;;;;13.00;11.80;;;5.20;1.00;;;;;;5048795;28;20475;-60
2023/01/18 10:13:56;;;;;;;16.00;12.63;;;5.30;1.00;;;;;;5054351;28;20447;-56
2023/01/18 10:16:21;;;;;;;17.17;13.43;;;5.20;1.00;;;;;;5047555;28;20440;-56
2023/01/18 10:18:50;;;;;;;14.83;11.57;;;5.20;1.00;;;;;;5048134;28;21045;-56
2023/01/18 10:21:36;;;;;;;16.97;12.43;;;5.30;1.00;;;;;;5048939;28;20533;-54
2023/01/18 10:24:28;;;;;;;14.73;11.43;;;5.30;1.00;;;;;;5068912;28;20433;-55
2023/01/18 10:27:16;;;;;;;18.20;12.80;;;5.30;1.00;;;;;;5055660;28;20502;-55
2023/01/18 10:30:13;;;;;;;14.30;11.73;;;5.30;1.00;;;;;;5049239;28;20470;-55
2023/01/18 10:32:46;;;;;;;15.17;11.10;;;5.20;1.00;;;;;;5052021;28;21032;-56
2023/01/18 10:35:15;;;;;;;16.00;11.90;;;5.20;1.00;;;;;;5060331;28;20442;-56
2023/01/18 10:37:45;;;;;;;17.33;12.43;;;5.20;1.00;;;;;;5058790;28;20577;-55
2023/01/18 10:40:13;;;;;;;16.60;12.50;;;5.30;1.00;;;;;;5067029;28;20466;-55
2023/01/18 10:42:44;;;;;;;14.10;10.93;;;5.50;1.00;;;;;;5048815;28;20442;-56
2023/01/18 10:45:18;;;;;;;15.33;12.17;;;5.50;1.00;;;;;;5049257;28;20502;-56
2023/01/18 10:47:45;;;;;;;16.70;12.30;;;5.50;1.00;;;;;;5048860;28;20446;-57
2023/01/18 10:50:32;;;;;;;16.70;13.17;;;5.50;1.00;;;;;;5048937;28;20559;-56
2023/01/18 10:53:17;;;;;;;15.03;11.27;;;5.40;1.00;;;;;;5047492;28;20466;-56
2023/01/18 10:56:04;;;;;;;16.00;13.40;;;5.20;1.00;;;;;;5048033;28;20578;-58
2023/01/18 10:58:42;;;;;;;16.17;12.30;;;5.20;1.00;;;;;;5048625;28;20518;-55
2023/01/18 11:01:38;;;;;;;18.00;13.50;;;5.30;1.00;;;;;;5049008;28;20972;-56
2023/01/18 11:04:16;;;;;;;15.67;13.20;;;5.30;1.00;;;;;;5044765;28;20451;-57
2023/01/18 11:06:58;;;;;;;18.63;13.90;;;5.30;1.00;;;;;;5049099;28;20435;-57
2023/01/18 11:09:38;;;;;;;16.90;14.30;;;5.30;1.00;;;;;;5049013;28;20467;-57
2023/01/18 11:12:36;;;;;;;17.57;13.43;;;5.30;1.00;;;;;;5046873;28;20436;-56
2023/01/18 11:15:13;;;;;;;19.50;15.10;;;5.30;1.00;;;;;;5049043;28;21119;-56
2023/01/18 11:17:43;;;;;;;18.50;13.90;;;5.40;1.00;;;;;;5053007;28;20435;-57
2023/01/18 11:20:28;;;;;;;16.50;13.73;;;5.30;1.00;;;;;;5069220;28;20446;-56
2023/01/18 11:23:00;;;;;;;19.17;14.50;;;5.20;1.00;;;;;;5068837;28;20443;-56
2023/01/18 11:26:08;;;;;;;17.23;15.10;;;5.20;1.00;;;;;;5048761;28;20471;-56
2023/01/18 11:28:38;;;;;;;18.37;14.60;;;5.00;1.00;;;;;;5046751;28;20912;-57
2023/01/18 11:31:14;;;;;;;18.70;14.80;;;5.00;1.00;;;;;;5068619;28;20488;-55
2023/01/18 11:34:01;;;;;;;17.17;13.97;;;4.90;1.00;;;;;;5068732;28;20436;-55
2023/01/18 11:36:39;;;;;;;16.40;14.67;;;4.90;1.00;;;;;;5047610;28;20442;-56
2023/01/18 11:39:21;;;;;;;19.83;15.60;;;4.90;1.00;;;;;;5048689;28;20448;-57
2023/01/18 11:41:47;;;;;;;18.53;14.00;;;4.90;1.00;;;;;;5048586;28;20844;-55
2023/01/18 11:44:24;;;;;;;16.27;13.43;;;4.90;1.00;;;;;;5066186;28;20468;-55
2023/01/18 11:46:53;;;;;;;17.13;13.93;;;4.90;1.00;;;;;;5059779;28;20454;-57
2023/01/18 11:49:18;;;;;;;19.03;14.53;;;5.00;1.00;;;;;;5051027;28;20475;-57
2023/01/18 11:52:01;;;;;;;17.83;13.80;;;5.10;1.00;;;;;;5051787;28;20442;-55
2023/01/18 11:54:34;;;;;;;15.67;13.87;;;5.10;1.00;;;;;;5050395;28;20191;-56
2023/01/18 11:57:03;;;;;;;16.90;13.87;;;4.90;1.00;;;;;;5057675;28;20471;-56
2023/01/18 11:59:44;;;;;;;18.83;14.70;;;4.90;1.00;;;;;;5051892;28;20444;-56
2023/01/18 12:02:29;;;;;;;16.63;14.83;;;4.80;1.00;;;;;;5049175;28;20547;-56
2023/01/18 12:05:19;;;;;;;16.43;13.53;;;4.80;1.00;;;;;;5051717;28;20518;-56
2023/01/18 12:07:54;;;;;;;19.93;14.30;;;4.70;1.00;;;;;;5051756;28;20443;-56
2023/01/18 12:10:26;;;;;;;16.10;13.03;;;4.60;1.00;;;;;;5051578;28;20466;-56
2023/01/18 12:13:16;;;;;;;16.27;12.80;;;4.70;1.00;;;;;;5050220;28;20522;-56
2023/01/18 12:16:07;;;;;;;15.17;12.77;;;4.70;1.00;;;;;;5050499;28;20452;-55
2023/01/18 12:18:56;;;;;;;16.70;14.23;;;4.70;1.00;;;;;;5050087;28;20543;-56
2023/01/18 12:21:37;;;;;;;19.37;13.97;;;4.70;1.00;;;;;;5057872;28;20426;-57
2023/01/18 12:24:24;;;;;;;18.90;15.20;;;4.70;1.00;;;;;;5071461;28;20433;-55
2023/01/18 12:26:56;;;;;;;18.50;15.03;;;4.70;1.00;;;;;;5071640;28;20462;-56
2023/01/18 12:29:43;;;;;;;16.93;14.07;;;4.90;1.00;;;;;;5066496;28;20523;-55
2023/01/18 12:32:09;;;;;;;18.33;15.43;;;4.70;1.00;;;;;;5053689;28;20561;-55
2023/01/18 12:34:57;;;;;;;21.67;16.10;;;4.80;1.00;;;;;;5051094;28;20507;-56
2023/01/18 12:37:48;;;;;;;19.83;14.60;;;4.80;1.00;;;;;;5053669;28;20200;-57
2023/01/18 12:40:35;;;;;;;19.23;15.37;;;4.70;1.00;;;;;;5050962;28;20444;-57
2023/01/18 12:43:26;;;;;;;19.37;15.43;;;4.70;1.00;;;;;;5049823;28;20450;-56
2023/01/18 12:45:54;;;;;;;18.80;14.43;;;4.50;1.00;;;;;;5050828;28;20490;-57
2023/01/18 12:48:39;;;;;;;18.40;14.77;;;4.60;1.00;;;;;;5051119;28;20914;-56
2023/01/18 12:51:12;;;;;;;18.00;15.07;;;4.80;1.00;;;;;;5050486;28;20444;-55
2023/01/18 12:53:54;;;;;;;19.87;15.50;;;4.80;1.00;;;;;;5051415;28;20497;-55
2023/01/18 12:56:26;;;;;;;17.70;14.67;;;4.90;1.00;;;;;;5049995;28;20448;-55
2023/01/18 12:58:58;;;;;;;19.80;15.23;;;4.90;1.00;;;;;;5051341;28;20435;-55
2023/01/18 13:01:28;;;;;;;17.23;14.77;;;4.80;1.00;;;;;;5050898;28;20776;-56
2023/01/18 13:04:00;;;;;;;17.87;14.60;;;4.70;1.00;;;;;;5050950;28;20443;-57
2023/01/18 13:06:27;;;;;;;20.73;15.07;;;4.80;1.00;;;;;;5050433;28;20903;-56
2023/01/18 13:08:59;;;;;;;19.03;16.40;;;4.60;1.00;;;;;;5050737;28;20506;-56
2023/01/18 13:11:34;;;;;;;20.77;16.87;;;4.60;1.00;;;;;;5050834;28;20904;-56
2023/01/18 13:14:16;;;;;;;20.67;15.20;;;4.70;1.00;;;;;;5050860;28;20431;-56
2023/01/18 13:17:08;;;;;;;18.50;16.07;;;4.60;1.00;;;;;;5050765;28;20436;-55
2023/01/18 13:19:53;;;;;;;18.50;15.40;;;4.70;1.00;;;;;;5050349;28;20443;-55
2023/01/18 13:22:22;;;;;;;18.53;15.10;;;4.70;1.00;;;;;;5049473;28;20452;-56
2023/01/18 13:24:54;;;;;;;20.60;15.70;;;4.80;1.00;;;;;;5049172;28;20448;-56
2023/01/18 13:27:20;;;;;;;18.43;14.10;;;4.70;1.00;;;;;;5050541;28;20476;-55
2023/01/18 13:29:46;;;;;;;17.43;13.60;;;4.60;1.00;;;;;;5050111;28;20475;-56
2023/01/18 13:32:38;;;;;;;20.10;15.07;;;4.60;1.00;;;;;;5055744;28;20507;-57
2023/01/18 13:35:22;;;;;;;20.63;15.30;;;4.60;1.00;;;;;;5057372;28;20201;-54
2023/01/18 13:37:56;;;;;;;19.13;14.50;;;4.60;1.00;;;;;;5050407;28;20464;-55
2023/01/18 13:40:36;;;;;;;20.47;15.60;;;4.60;1.00;;;;;;5050373;28;20489;-57
2023/01/18 13:43:04;;;;;;;19.00;14.93;;;4.50;1.00;;;;;;5049849;28;20450;-55